sensor_id;sensor_type;location;lat;lon;timestamp;P1;durP1;ratioP1;P2;durP2;ratioP2
12312;SDS011;6220;53.580;9.758;2023-06-22T00:01:46;4.20;;;3.37;;
12312;SDS011;6220;53.580;9.758;2023-06-22T00:04:12;4.03;;;3.30;;
12312;SDS011;6220;53.580;9.758;2023-06-22T00:06:37;4.47;;;3.03;;
12312;SDS011;6220;53.580;9.758;2023-06-22T00:09:02;4.93;;;3.40;;
12312;SDS011;6220;53.580;9.758;2023-06-22T00:11:28;3.60;;;3.10;;
12312;SDS011;6220;53.580;9.758;2023-06-22T00:13:53;3.20;;;2.90;;
12312;SDS011;6220;53.580;9.758;2023-06-22T00:16:19;4.70;;;3.53;;
12312;SDS011;6220;53.580;9.758;2023-06-22T00:18:44;4.10;;;2.80;;
12312;SDS011;6220;53.580;9.758;2023-06-22T00:21:12;5.33;;;3.33;;
12312;SDS011;6220;53.580;9.758;2023-06-22T00:23:38;3.27;;;2.97;;
12312;SDS011;6220;53.580;9.758;2023-06-22T00:26:19;3.43;;;3.00;;
12312;SDS011;6220;53.580;9.758;2023-06-22T00:28:45;5.07;;;3.90;;
12312;SDS011;6220;53.580;9.758;2023-06-22T00:31:11;3.60;;;3.30;;
12312;SDS011;6220;53.580;9.758;2023-06-22T00:33:36;3.40;;;3.10;;
12312;SDS011;6220;53.580;9.758;2023-06-22T00:36:01;3.33;;;3.03;;
12312;SDS011;6220;53.580;9.758;2023-06-22T00:38:28;3.80;;;3.07;;
12312;SDS011;6220;53.580;9.758;2023-06-22T00:40:53;5.90;;;3.30;;
12312;SDS011;6220;53.580;9.758;2023-06-22T00:43:19;4.67;;;3.57;;
12312;SDS011;6220;53.580;9.758;2023-06-22T00:45:44;3.67;;;3.37;;
12312;SDS011;6220;53.580;9.758;2023-06-22T00:48:10;3.80;;;3.30;;
12312;SDS011;6220;53.580;9.758;2023-06-22T00:50:37;4.40;;;3.40;;
12312;SDS011;6220;53.580;9.758;2023-06-22T00:53:05;3.87;;;3.23;;
12312;SDS011;6220;53.580;9.758;2023-06-22T00:55:42;3.50;;;3.20;;
12312;SDS011;6220;53.580;9.758;2023-06-22T00:58:08;4.40;;;3.20;;
12312;SDS011;6220;53.580;9.758;2023-06-22T01:00:35;4.80;;;3.40;;
12312;SDS011;6220;53.580;9.758;2023-06-22T01:03:01;3.97;;;3.47;;
12312;SDS011;6220;53.580;9.758;2023-06-22T01:05:27;4.60;;;3.50;;
12312;SDS011;6220;53.580;9.758;2023-06-22T01:08:05;3.93;;;3.40;;
12312;SDS011;6220;53.580;9.758;2023-06-22T01:13:35;4.47;;;3.70;;
12312;SDS011;6220;53.580;9.758;2023-06-22T01:16:11;4.33;;;3.17;;
12312;SDS011;6220;53.580;9.758;2023-06-22T01:18:42;4.37;;;3.50;;
12312;SDS011;6220;53.580;9.758;2023-06-22T01:21:09;3.77;;;3.30;;
12312;SDS011;6220;53.580;9.758;2023-06-22T01:26:57;4.27;;;3.00;;
12312;SDS011;6220;53.580;9.758;2023-06-22T01:29:40;3.87;;;3.47;;
12312;SDS011;6220;53.580;9.758;2023-06-22T01:32:06;3.87;;;3.43;;
12312;SDS011;6220;53.580;9.758;2023-06-22T01:34:32;4.03;;;3.57;;
12312;SDS011;6220;53.580;9.758;2023-06-22T01:36:58;4.00;;;3.60;;
12312;SDS011;6220;53.580;9.758;2023-06-22T01:39:25;4.23;;;3.80;;
12312;SDS011;6220;53.580;9.758;2023-06-22T01:41:51;4.33;;;3.70;;
12312;SDS011;6220;53.580;9.758;2023-06-22T01:44:17;4.53;;;3.50;;
12312;SDS011;6220;53.580;9.758;2023-06-22T01:46:42;4.93;;;4.03;;
12312;SDS011;6220;53.580;9.758;2023-06-22T01:49:08;3.93;;;3.53;;
12312;SDS011;6220;53.580;9.758;2023-06-22T01:51:34;4.50;;;3.47;;
12312;SDS011;6220;53.580;9.758;2023-06-22T01:53:59;3.73;;;3.23;;
12312;SDS011;6220;53.580;9.758;2023-06-22T01:56:24;3.83;;;3.53;;
12312;SDS011;6220;53.580;9.758;2023-06-22T01:58:55;5.50;;;3.60;;
12312;SDS011;6220;53.580;9.758;2023-06-22T02:01:27;5.13;;;4.40;;
12312;SDS011;6220;53.580;9.758;2023-06-22T02:04:03;4.00;;;3.60;;
12312;SDS011;6220;53.580;9.758;2023-06-22T02:06:33;4.70;;;4.20;;
12312;SDS011;6220;53.580;9.758;2023-06-22T02:09:02;4.17;;;3.77;;
12312;SDS011;6220;53.580;9.758;2023-06-22T02:11:34;4.70;;;3.97;;
12312;SDS011;6220;53.580;9.758;2023-06-22T02:14:00;4.00;;;3.60;;
12312;SDS011;6220;53.580;9.758;2023-06-22T02:16:26;5.30;;;4.40;;
12312;SDS011;6220;53.580;9.758;2023-06-22T02:18:54;5.13;;;3.90;;
12312;SDS011;6220;53.580;9.758;2023-06-22T02:21:20;5.53;;;4.20;;
12312;SDS011;6220;53.580;9.758;2023-06-22T02:23:46;4.07;;;3.73;;
12312;SDS011;6220;53.580;9.758;2023-06-22T02:26:11;6.13;;;3.80;;
12312;SDS011;6220;53.580;9.758;2023-06-22T02:28:37;5.00;;;4.03;;
12312;SDS011;6220;53.580;9.758;2023-06-22T02:31:02;5.37;;;4.10;;
12312;SDS011;6220;53.580;9.758;2023-06-22T02:33:28;5.77;;;4.47;;
12312;SDS011;6220;53.580;9.758;2023-06-22T02:35:53;5.17;;;4.13;;
12312;SDS011;6220;53.580;9.758;2023-06-22T02:38:19;5.27;;;4.53;;
12312;SDS011;6220;53.580;9.758;2023-06-22T02:40:44;8.37;;;4.17;;
12312;SDS011;6220;53.580;9.758;2023-06-22T02:43:10;6.37;;;4.47;;
12312;SDS011;6220;53.580;9.758;2023-06-22T02:45:35;6.20;;;4.50;;
12312;SDS011;6220;53.580;9.758;2023-06-22T02:48:01;5.20;;;4.40;;
12312;SDS011;6220;53.580;9.758;2023-06-22T02:50:26;6.27;;;4.47;;
12312;SDS011;6220;53.580;9.758;2023-06-22T02:52:53;7.97;;;4.63;;
12312;SDS011;6220;53.580;9.758;2023-06-22T02:55:18;6.23;;;4.80;;
12312;SDS011;6220;53.580;9.758;2023-06-22T02:57:44;5.67;;;4.43;;
12312;SDS011;6220;53.580;9.758;2023-06-22T03:00:12;6.93;;;4.83;;
12312;SDS011;6220;53.580;9.758;2023-06-22T03:02:44;7.53;;;5.03;;
12312;SDS011;6220;53.580;9.758;2023-06-22T03:05:09;5.40;;;4.80;;
12312;SDS011;6220;53.580;9.758;2023-06-22T03:07:41;5.43;;;4.70;;
12312;SDS011;6220;53.580;9.758;2023-06-22T03:10:11;7.97;;;4.77;;
12312;SDS011;6220;53.580;9.758;2023-06-22T03:12:37;5.80;;;4.40;;
12312;SDS011;6220;53.580;9.758;2023-06-22T03:15:07;5.97;;;5.00;;
12312;SDS011;6220;53.580;9.758;2023-06-22T03:17:33;5.80;;;5.00;;
12312;SDS011;6220;53.580;9.758;2023-06-22T03:20:00;7.10;;;5.20;;
12312;SDS011;6220;53.580;9.758;2023-06-22T03:22:25;6.03;;;4.60;;
12312;SDS011;6220;53.580;9.758;2023-06-22T03:24:51;8.07;;;5.23;;
12312;SDS011;6220;53.580;9.758;2023-06-22T03:27:16;5.27;;;4.77;;
12312;SDS011;6220;53.580;9.758;2023-06-22T03:29:42;6.33;;;5.10;;
12312;SDS011;6220;53.580;9.758;2023-06-22T03:32:09;6.70;;;6.00;;
12312;SDS011;6220;53.580;9.758;2023-06-22T03:34:35;7.20;;;5.87;;
12312;SDS011;6220;53.580;9.758;2023-06-22T03:37:03;7.27;;;5.83;;
12312;SDS011;6220;53.580;9.758;2023-06-22T03:39:29;7.97;;;5.80;;
12312;SDS011;6220;53.580;9.758;2023-06-22T03:41:54;7.93;;;5.97;;
12312;SDS011;6220;53.580;9.758;2023-06-22T03:44:19;8.70;;;6.00;;
12312;SDS011;6220;53.580;9.758;2023-06-22T03:46:45;7.27;;;5.60;;
12312;SDS011;6220;53.580;9.758;2023-06-22T03:49:11;8.30;;;5.57;;
12312;SDS011;6220;53.580;9.758;2023-06-22T03:51:37;6.57;;;5.63;;
12312;SDS011;6220;53.580;9.758;2023-06-22T03:54:02;6.20;;;5.47;;
12312;SDS011;6220;53.580;9.758;2023-06-22T03:56:27;7.40;;;6.67;;
12312;SDS011;6220;53.580;9.758;2023-06-22T03:58:53;6.13;;;5.33;;
12312;SDS011;6220;53.580;9.758;2023-06-22T04:01:18;7.57;;;6.53;;
12312;SDS011;6220;53.580;9.758;2023-06-22T04:03:43;7.50;;;6.30;;
12312;SDS011;6220;53.580;9.758;2023-06-22T04:06:09;8.73;;;6.40;;
12312;SDS011;6220;53.580;9.758;2023-06-22T04:08:35;8.03;;;7.13;;
12312;SDS011;6220;53.580;9.758;2023-06-22T04:11:01;8.77;;;7.07;;
12312;SDS011;6220;53.580;9.758;2023-06-22T04:13:26;9.07;;;8.17;;
12312;SDS011;6220;53.580;9.758;2023-06-22T04:15:52;9.67;;;8.00;;
12312;SDS011;6220;53.580;9.758;2023-06-22T04:18:17;11.43;;;8.10;;
12312;SDS011;6220;53.580;9.758;2023-06-22T04:20:43;11.50;;;8.67;;
12312;SDS011;6220;53.580;9.758;2023-06-22T04:23:11;11.87;;;7.83;;
12312;SDS011;6220;53.580;9.758;2023-06-22T04:25:37;9.00;;;7.30;;
12312;SDS011;6220;53.580;9.758;2023-06-22T04:28:02;8.43;;;7.10;;
12312;SDS011;6220;53.580;9.758;2023-06-22T04:30:29;10.80;;;7.73;;
12312;SDS011;6220;53.580;9.758;2023-06-22T04:32:56;10.57;;;7.17;;
12312;SDS011;6220;53.580;9.758;2023-06-22T04:35:23;9.40;;;7.80;;
12312;SDS011;6220;53.580;9.758;2023-06-22T04:37:49;9.63;;;7.80;;
12312;SDS011;6220;53.580;9.758;2023-06-22T04:40:15;8.87;;;7.87;;
12312;SDS011;6220;53.580;9.758;2023-06-22T04:42:40;10.23;;;7.40;;
12312;SDS011;6220;53.580;9.758;2023-06-22T04:45:17;10.53;;;9.00;;
12312;SDS011;6220;53.580;9.758;2023-06-22T04:47:42;11.90;;;8.50;;
12312;SDS011;6220;53.580;9.758;2023-06-22T04:50:10;10.70;;;9.23;;
12312;SDS011;6220;53.580;9.758;2023-06-22T04:52:36;11.93;;;9.07;;
12312;SDS011;6220;53.580;9.758;2023-06-22T04:55:02;11.90;;;9.10;;
12312;SDS011;6220;53.580;9.758;2023-06-22T04:57:28;9.57;;;8.10;;
12312;SDS011;6220;53.580;9.758;2023-06-22T05:00:00;9.17;;;8.00;;
12312;SDS011;6220;53.580;9.758;2023-06-22T05:02:46;11.87;;;9.10;;
12312;SDS011;6220;53.580;9.758;2023-06-22T05:05:12;11.87;;;8.50;;
12312;SDS011;6220;53.580;9.758;2023-06-22T05:07:45;9.90;;;8.77;;
12312;SDS011;6220;53.580;9.758;2023-06-22T05:10:13;9.90;;;8.90;;
12312;SDS011;6220;53.580;9.758;2023-06-22T05:12:40;10.97;;;8.43;;
12312;SDS011;6220;53.580;9.758;2023-06-22T05:15:06;12.53;;;8.00;;
12312;SDS011;6220;53.580;9.758;2023-06-22T05:17:32;9.43;;;8.47;;
12312;SDS011;6220;53.580;9.758;2023-06-22T05:19:59;8.77;;;7.97;;
12312;SDS011;6220;53.580;9.758;2023-06-22T05:22:25;9.67;;;7.50;;
12312;SDS011;6220;53.580;9.758;2023-06-22T05:24:50;9.33;;;7.40;;
12312;SDS011;6220;53.580;9.758;2023-06-22T05:27:15;10.97;;;7.47;;
12312;SDS011;6220;53.580;9.758;2023-06-22T05:29:41;8.40;;;7.50;;
12312;SDS011;6220;53.580;9.758;2023-06-22T05:32:07;9.17;;;7.80;;
12312;SDS011;6220;53.580;9.758;2023-06-22T05:34:33;10.70;;;7.43;;
12312;SDS011;6220;53.580;9.758;2023-06-22T05:36:58;7.80;;;7.00;;
12312;SDS011;6220;53.580;9.758;2023-06-22T05:39:24;8.93;;;6.73;;
12312;SDS011;6220;53.580;9.758;2023-06-22T05:41:51;10.00;;;6.73;;
12312;SDS011;6220;53.580;9.758;2023-06-22T05:44:17;7.07;;;5.80;;
12312;SDS011;6220;53.580;9.758;2023-06-22T05:46:43;6.00;;;5.40;;
12312;SDS011;6220;53.580;9.758;2023-06-22T05:49:13;7.07;;;6.00;;
12312;SDS011;6220;53.580;9.758;2023-06-22T05:51:39;8.43;;;6.70;;
12312;SDS011;6220;53.580;9.758;2023-06-22T05:54:04;6.73;;;6.13;;
12312;SDS011;6220;53.580;9.758;2023-06-22T05:56:30;8.40;;;6.70;;
12312;SDS011;6220;53.580;9.758;2023-06-22T05:58:55;7.20;;;5.90;;
12312;SDS011;6220;53.580;9.758;2023-06-22T06:01:20;9.83;;;5.50;;
12312;SDS011;6220;53.580;9.758;2023-06-22T06:03:46;8.17;;;5.80;;
12312;SDS011;6220;53.580;9.758;2023-06-22T06:06:11;8.33;;;5.67;;
12312;SDS011;6220;53.580;9.758;2023-06-22T06:08:37;6.97;;;6.03;;
12312;SDS011;6220;53.580;9.758;2023-06-22T06:11:04;7.87;;;5.93;;
12312;SDS011;6220;53.580;9.758;2023-06-22T06:13:30;7.83;;;5.80;;
12312;SDS011;6220;53.580;9.758;2023-06-22T06:15:56;6.50;;;5.83;;
12312;SDS011;6220;53.580;9.758;2023-06-22T06:18:22;8.80;;;6.37;;
12312;SDS011;6220;53.580;9.758;2023-06-22T06:20:47;8.10;;;6.90;;
12312;SDS011;6220;53.580;9.758;2023-06-22T06:23:13;11.73;;;6.07;;
12312;SDS011;6220;53.580;9.758;2023-06-22T06:25:38;7.00;;;5.60;;
12312;SDS011;6220;53.580;9.758;2023-06-22T06:28:03;8.20;;;5.30;;
12312;SDS011;6220;53.580;9.758;2023-06-22T06:30:29;8.20;;;5.33;;
12312;SDS011;6220;53.580;9.758;2023-06-22T06:32:55;7.37;;;5.17;;
12312;SDS011;6220;53.580;9.758;2023-06-22T06:35:20;7.13;;;5.60;;
12312;SDS011;6220;53.580;9.758;2023-06-22T06:37:47;7.97;;;5.53;;
12312;SDS011;6220;53.580;9.758;2023-06-22T06:40:13;6.43;;;4.83;;
12312;SDS011;6220;53.580;9.758;2023-06-22T06:42:40;6.33;;;4.67;;
12312;SDS011;6220;53.580;9.758;2023-06-22T06:45:15;5.73;;;5.00;;
12312;SDS011;6220;53.580;9.758;2023-06-22T06:47:42;7.57;;;4.40;;
12312;SDS011;6220;53.580;9.758;2023-06-22T06:50:08;6.00;;;4.60;;
12312;SDS011;6220;53.580;9.758;2023-06-22T06:52:34;4.43;;;3.90;;
12312;SDS011;6220;53.580;9.758;2023-06-22T06:55:00;6.93;;;4.30;;
12312;SDS011;6220;53.580;9.758;2023-06-22T06:57:26;4.80;;;3.80;;
12312;SDS011;6220;53.580;9.758;2023-06-22T06:59:55;5.77;;;3.63;;
12312;SDS011;6220;53.580;9.758;2023-06-22T07:02:21;4.67;;;3.70;;
12312;SDS011;6220;53.580;9.758;2023-06-22T07:04:47;7.00;;;3.87;;
12312;SDS011;6220;53.580;9.758;2023-06-22T07:07:14;6.00;;;4.03;;
12312;SDS011;6220;53.580;9.758;2023-06-22T07:09:39;5.03;;;3.87;;
12312;SDS011;6220;53.580;9.758;2023-06-22T07:12:05;4.87;;;3.73;;
12312;SDS011;6220;53.580;9.758;2023-06-22T07:14:31;5.50;;;3.23;;
12312;SDS011;6220;53.580;9.758;2023-06-22T07:16:57;6.53;;;4.30;;
12312;SDS011;6220;53.580;9.758;2023-06-22T07:19:26;6.37;;;4.00;;
12312;SDS011;6220;53.580;9.758;2023-06-22T07:21:55;7.17;;;3.97;;
12312;SDS011;6220;53.580;9.758;2023-06-22T07:24:21;5.70;;;3.87;;
12312;SDS011;6220;53.580;9.758;2023-06-22T07:26:47;4.87;;;3.63;;
12312;SDS011;6220;53.580;9.758;2023-06-22T07:29:16;5.00;;;3.70;;
12312;SDS011;6220;53.580;9.758;2023-06-22T07:31:42;4.97;;;3.30;;
12312;SDS011;6220;53.580;9.758;2023-06-22T07:34:08;3.77;;;3.20;;
12312;SDS011;6220;53.580;9.758;2023-06-22T07:36:33;5.97;;;3.43;;
12312;SDS011;6220;53.580;9.758;2023-06-22T07:39:00;3.53;;;3.00;;
12312;SDS011;6220;53.580;9.758;2023-06-22T07:41:28;3.73;;;3.10;;
12312;SDS011;6220;53.580;9.758;2023-06-22T07:43:54;4.57;;;3.50;;
12312;SDS011;6220;53.580;9.758;2023-06-22T07:46:19;8.87;;;3.00;;
12312;SDS011;6220;53.580;9.758;2023-06-22T07:48:45;6.60;;;3.50;;
12312;SDS011;6220;53.580;9.758;2023-06-22T07:51:10;4.80;;;3.40;;
12312;SDS011;6220;53.580;9.758;2023-06-22T07:53:39;5.07;;;3.40;;
12312;SDS011;6220;53.580;9.758;2023-06-22T07:56:07;4.27;;;3.33;;
12312;SDS011;6220;53.580;9.758;2023-06-22T07:58:35;3.90;;;3.37;;
12312;SDS011;6220;53.580;9.758;2023-06-22T08:01:00;4.87;;;2.90;;
12312;SDS011;6220;53.580;9.758;2023-06-22T08:03:26;5.03;;;3.23;;
12312;SDS011;6220;53.580;9.758;2023-06-22T08:05:51;4.63;;;2.93;;
12312;SDS011;6220;53.580;9.758;2023-06-22T08:08:16;5.33;;;3.40;;
12312;SDS011;6220;53.580;9.758;2023-06-22T08:10:42;5.23;;;3.00;;
12312;SDS011;6220;53.580;9.758;2023-06-22T08:13:08;5.70;;;3.23;;
12312;SDS011;6220;53.580;9.758;2023-06-22T08:15:33;4.63;;;3.40;;
12312;SDS011;6220;53.580;9.758;2023-06-22T08:17:58;4.33;;;2.83;;
12312;SDS011;6220;53.580;9.758;2023-06-22T08:20:25;5.70;;;3.30;;
12312;SDS011;6220;53.580;9.758;2023-06-22T08:22:51;4.60;;;2.93;;
12312;SDS011;6220;53.580;9.758;2023-06-22T08:25:16;3.87;;;2.60;;
12312;SDS011;6220;53.580;9.758;2023-06-22T08:27:44;4.67;;;2.87;;
12312;SDS011;6220;53.580;9.758;2023-06-22T08:30:12;4.20;;;2.97;;
12312;SDS011;6220;53.580;9.758;2023-06-22T08:32:37;4.80;;;3.10;;
12312;SDS011;6220;53.580;9.758;2023-06-22T08:35:02;5.27;;;2.93;;
12312;SDS011;6220;53.580;9.758;2023-06-22T08:37:28;3.87;;;3.47;;
12312;SDS011;6220;53.580;9.758;2023-06-22T08:40:00;3.87;;;2.97;;
12312;SDS011;6220;53.580;9.758;2023-06-22T08:42:34;4.77;;;3.10;;
12312;SDS011;6220;53.580;9.758;2023-06-22T08:45:03;3.30;;;3.00;;
12312;SDS011;6220;53.580;9.758;2023-06-22T08:47:29;3.33;;;2.90;;
12312;SDS011;6220;53.580;9.758;2023-06-22T08:49:56;5.20;;;2.93;;
12312;SDS011;6220;53.580;9.758;2023-06-22T08:52:21;5.30;;;2.90;;
12312;SDS011;6220;53.580;9.758;2023-06-22T08:54:48;5.50;;;3.00;;
12312;SDS011;6220;53.580;9.758;2023-06-22T08:57:14;3.70;;;2.73;;
12312;SDS011;6220;53.580;9.758;2023-06-22T08:59:39;3.93;;;3.03;;
12312;SDS011;6220;53.580;9.758;2023-06-22T09:02:05;4.13;;;2.50;;
12312;SDS011;6220;53.580;9.758;2023-06-22T09:04:30;5.53;;;3.17;;
12312;SDS011;6220;53.580;9.758;2023-06-22T09:06:59;4.80;;;2.80;;
12312;SDS011;6220;53.580;9.758;2023-06-22T09:09:25;3.90;;;3.00;;
12312;SDS011;6220;53.580;9.758;2023-06-22T09:11:50;4.33;;;3.17;;
12312;SDS011;6220;53.580;9.758;2023-06-22T09:14:16;6.17;;;3.03;;
12312;SDS011;6220;53.580;9.758;2023-06-22T09:16:42;4.10;;;2.80;;
12312;SDS011;6220;53.580;9.758;2023-06-22T09:19:08;4.37;;;3.47;;
12312;SDS011;6220;53.580;9.758;2023-06-22T09:21:33;3.70;;;3.00;;
12312;SDS011;6220;53.580;9.758;2023-06-22T09:23:58;5.80;;;3.30;;
12312;SDS011;6220;53.580;9.758;2023-06-22T09:26:24;6.53;;;3.80;;
12312;SDS011;6220;53.580;9.758;2023-06-22T09:28:49;4.27;;;3.07;;
12312;SDS011;6220;53.580;9.758;2023-06-22T09:31:15;6.80;;;3.60;;
12312;SDS011;6220;53.580;9.758;2023-06-22T09:33:42;5.60;;;3.50;;
12312;SDS011;6220;53.580;9.758;2023-06-22T09:36:07;4.23;;;3.07;;
12312;SDS011;6220;53.580;9.758;2023-06-22T09:38:37;7.37;;;3.20;;
12312;SDS011;6220;53.580;9.758;2023-06-22T09:41:02;5.00;;;3.10;;
12312;SDS011;6220;53.580;9.758;2023-06-22T09:43:28;6.40;;;2.97;;
12312;SDS011;6220;53.580;9.758;2023-06-22T09:45:53;5.47;;;3.80;;
12312;SDS011;6220;53.580;9.758;2023-06-22T09:48:19;4.33;;;3.50;;
12312;SDS011;6220;53.580;9.758;2023-06-22T09:50:44;5.30;;;3.07;;
12312;SDS011;6220;53.580;9.758;2023-06-22T09:53:09;4.67;;;3.23;;
12312;SDS011;6220;53.580;9.758;2023-06-22T09:55:35;5.03;;;2.97;;
12312;SDS011;6220;53.580;9.758;2023-06-22T09:58:00;4.03;;;3.33;;
12312;SDS011;6220;53.580;9.758;2023-06-22T10:00:26;4.53;;;3.90;;
12312;SDS011;6220;53.580;9.758;2023-06-22T10:02:52;4.47;;;2.93;;
12312;SDS011;6220;53.580;9.758;2023-06-22T10:05:17;7.30;;;3.20;;
12312;SDS011;6220;53.580;9.758;2023-06-22T10:07:43;6.70;;;3.50;;
12312;SDS011;6220;53.580;9.758;2023-06-22T10:10:09;4.37;;;3.27;;
12312;SDS011;6220;53.580;9.758;2023-06-22T10:12:35;6.40;;;3.77;;
12312;SDS011;6220;53.580;9.758;2023-06-22T10:15:01;6.33;;;3.67;;
12312;SDS011;6220;53.580;9.758;2023-06-22T10:17:26;7.60;;;3.70;;
12312;SDS011;6220;53.580;9.758;2023-06-22T10:19:51;5.47;;;3.33;;
12312;SDS011;6220;53.580;9.758;2023-06-22T10:22:18;4.57;;;3.00;;
12312;SDS011;6220;53.580;9.758;2023-06-22T10:24:44;7.23;;;3.30;;
12312;SDS011;6220;53.580;9.758;2023-06-22T10:27:10;6.07;;;2.97;;
12312;SDS011;6220;53.580;9.758;2023-06-22T10:29:36;5.63;;;3.40;;
12312;SDS011;6220;53.580;9.758;2023-06-22T10:32:01;5.97;;;3.47;;
12312;SDS011;6220;53.580;9.758;2023-06-22T10:34:27;6.37;;;3.20;;
12312;SDS011;6220;53.580;9.758;2023-06-22T10:36:52;4.80;;;3.10;;
12312;SDS011;6220;53.580;9.758;2023-06-22T10:39:18;5.63;;;3.30;;
12312;SDS011;6220;53.580;9.758;2023-06-22T10:41:43;6.13;;;3.33;;
12312;SDS011;6220;53.580;9.758;2023-06-22T10:44:09;6.10;;;3.67;;
12312;SDS011;6220;53.580;9.758;2023-06-22T10:46:34;6.33;;;3.37;;
12312;SDS011;6220;53.580;9.758;2023-06-22T10:49:00;6.83;;;3.40;;
12312;SDS011;6220;53.580;9.758;2023-06-22T10:51:25;12.10;;;3.13;;
12312;SDS011;6220;53.580;9.758;2023-06-22T10:53:53;5.87;;;3.60;;
12312;SDS011;6220;53.580;9.758;2023-06-22T10:56:18;4.90;;;3.40;;
12312;SDS011;6220;53.580;9.758;2023-06-22T10:58:44;3.93;;;3.47;;
12312;SDS011;6220;53.580;9.758;2023-06-22T11:01:10;5.50;;;4.10;;
12312;SDS011;6220;53.580;9.758;2023-06-22T11:03:35;5.27;;;3.23;;
12312;SDS011;6220;53.580;9.758;2023-06-22T11:06:01;5.13;;;3.87;;
12312;SDS011;6220;53.580;9.758;2023-06-22T11:08:26;3.47;;;3.17;;
12312;SDS011;6220;53.580;9.758;2023-06-22T11:10:51;5.83;;;3.60;;
12312;SDS011;6220;53.580;9.758;2023-06-22T11:13:17;5.20;;;3.60;;
12312;SDS011;6220;53.580;9.758;2023-06-22T11:15:43;5.13;;;3.53;;
12312;SDS011;6220;53.580;9.758;2023-06-22T11:18:08;6.03;;;3.90;;
12312;SDS011;6220;53.580;9.758;2023-06-22T11:20:33;5.90;;;3.50;;
12312;SDS011;6220;53.580;9.758;2023-06-22T11:23:03;4.97;;;3.60;;
12312;SDS011;6220;53.580;9.758;2023-06-22T11:25:31;4.30;;;3.87;;
12312;SDS011;6220;53.580;9.758;2023-06-22T11:27:59;3.77;;;3.47;;
12312;SDS011;6220;53.580;9.758;2023-06-22T11:30:25;4.23;;;3.77;;
12312;SDS011;6220;53.580;9.758;2023-06-22T11:32:50;4.17;;;3.33;;
12312;SDS011;6220;53.580;9.758;2023-06-22T11:35:16;4.70;;;3.70;;
12312;SDS011;6220;53.580;9.758;2023-06-22T11:37:41;4.37;;;3.97;;
12312;SDS011;6220;53.580;9.758;2023-06-22T11:40:07;5.47;;;3.47;;
12312;SDS011;6220;53.580;9.758;2023-06-22T11:42:34;4.73;;;3.63;;
12312;SDS011;6220;53.580;9.758;2023-06-22T11:45:00;4.50;;;4.10;;
12312;SDS011;6220;53.580;9.758;2023-06-22T11:47:25;4.33;;;3.80;;
12312;SDS011;6220;53.580;9.758;2023-06-22T11:49:50;4.17;;;3.47;;
12312;SDS011;6220;53.580;9.758;2023-06-22T11:52:16;5.20;;;3.80;;
12312;SDS011;6220;53.580;9.758;2023-06-22T11:54:44;3.70;;;3.40;;
12312;SDS011;6220;53.580;9.758;2023-06-22T11:57:09;5.57;;;4.35;;
12312;SDS011;6220;53.580;9.758;2023-06-22T11:59:34;6.57;;;3.77;;
12312;SDS011;6220;53.580;9.758;2023-06-22T12:02:00;4.47;;;4.07;;
12312;SDS011;6220;53.580;9.758;2023-06-22T12:04:25;4.67;;;4.17;;
12312;SDS011;6220;53.580;9.758;2023-06-22T12:06:50;5.20;;;3.90;;
12312;SDS011;6220;53.580;9.758;2023-06-22T12:09:17;7.63;;;3.57;;
12312;SDS011;6220;53.580;9.758;2023-06-22T12:11:42;4.23;;;3.83;;
12312;SDS011;6220;53.580;9.758;2023-06-22T12:14:08;7.17;;;4.20;;
12312;SDS011;6220;53.580;9.758;2023-06-22T12:16:33;4.40;;;3.87;;
12312;SDS011;6220;53.580;9.758;2023-06-22T12:18:58;4.97;;;3.87;;
12312;SDS011;6220;53.580;9.758;2023-06-22T12:21:24;4.67;;;4.17;;
12312;SDS011;6220;53.580;9.758;2023-06-22T12:23:49;6.27;;;4.63;;
12312;SDS011;6220;53.580;9.758;2023-06-22T12:26:14;6.67;;;4.10;;
12312;SDS011;6220;53.580;9.758;2023-06-22T12:28:40;4.90;;;4.13;;
12312;SDS011;6220;53.580;9.758;2023-06-22T12:31:05;4.37;;;3.97;;
12312;SDS011;6220;53.580;9.758;2023-06-22T12:33:31;4.73;;;4.23;;
12312;SDS011;6220;53.580;9.758;2023-06-22T12:35:56;4.93;;;4.43;;
12312;SDS011;6220;53.580;9.758;2023-06-22T12:38:22;5.13;;;4.63;;
12312;SDS011;6220;53.580;9.758;2023-06-22T12:40:49;5.10;;;4.47;;
12312;SDS011;6220;53.580;9.758;2023-06-22T12:43:15;5.80;;;4.60;;
12312;SDS011;6220;53.580;9.758;2023-06-22T12:45:40;5.47;;;4.67;;
12312;SDS011;6220;53.580;9.758;2023-06-22T12:48:06;6.10;;;4.07;;
12312;SDS011;6220;53.580;9.758;2023-06-22T12:50:31;6.37;;;4.00;;
12312;SDS011;6220;53.580;9.758;2023-06-22T12:52:56;7.07;;;4.40;;
12312;SDS011;6220;53.580;9.758;2023-06-22T12:55:22;6.50;;;4.50;;
12312;SDS011;6220;53.580;9.758;2023-06-22T12:57:48;4.83;;;4.43;;
12312;SDS011;6220;53.580;9.758;2023-06-22T13:00:13;4.80;;;4.40;;
12312;SDS011;6220;53.580;9.758;2023-06-22T13:02:39;4.73;;;4.20;;
12312;SDS011;6220;53.580;9.758;2023-06-22T13:05:04;4.80;;;4.40;;
12312;SDS011;6220;53.580;9.758;2023-06-22T13:07:30;4.67;;;3.87;;
12312;SDS011;6220;53.580;9.758;2023-06-22T13:09:55;6.10;;;4.47;;
12312;SDS011;6220;53.580;9.758;2023-06-22T13:12:21;4.50;;;4.10;;
12312;SDS011;6220;53.580;9.758;2023-06-22T13:14:46;5.23;;;4.73;;
12312;SDS011;6220;53.580;9.758;2023-06-22T13:17:12;5.28;;;4.07;;
12312;SDS011;6220;53.580;9.758;2023-06-22T13:19:38;6.40;;;4.30;;
12312;SDS011;6220;53.580;9.758;2023-06-22T13:22:04;9.53;;;4.60;;
12312;SDS011;6220;53.580;9.758;2023-06-22T13:24:30;5.17;;;3.87;;
12312;SDS011;6220;53.580;9.758;2023-06-22T13:26:55;4.30;;;3.90;;
12312;SDS011;6220;53.580;9.758;2023-06-22T13:29:21;4.57;;;3.80;;
12312;SDS011;6220;53.580;9.758;2023-06-22T13:31:46;6.35;;;4.22;;
12312;SDS011;6220;53.580;9.758;2023-06-22T13:34:11;4.93;;;4.18;;
12312;SDS011;6220;53.580;9.758;2023-06-22T13:36:37;5.43;;;4.93;;
12312;SDS011;6220;53.580;9.758;2023-06-22T13:39:02;5.40;;;4.20;;
12312;SDS011;6220;53.580;9.758;2023-06-22T13:41:28;5.07;;;4.63;;
12312;SDS011;6220;53.580;9.758;2023-06-22T13:43:54;5.03;;;4.63;;
12312;SDS011;6220;53.580;9.758;2023-06-22T13:46:19;6.07;;;4.40;;
12312;SDS011;6220;53.580;9.758;2023-06-22T13:48:45;4.80;;;4.37;;
12312;SDS011;6220;53.580;9.758;2023-06-22T13:51:10;5.30;;;4.80;;
12312;SDS011;6220;53.580;9.758;2023-06-22T13:53:35;5.33;;;4.80;;
12312;SDS011;6220;53.580;9.758;2023-06-22T13:56:01;5.37;;;4.87;;
12312;SDS011;6220;53.580;9.758;2023-06-22T13:58:26;6.00;;;5.50;;
12312;SDS011;6220;53.580;9.758;2023-06-22T14:00:51;8.47;;;5.60;;
12312;SDS011;6220;53.580;9.758;2023-06-22T14:03:17;6.87;;;5.70;;
12312;SDS011;6220;53.580;9.758;2023-06-22T14:05:42;6.10;;;5.50;;
12312;SDS011;6220;53.580;9.758;2023-06-22T14:08:08;6.83;;;5.80;;
12312;SDS011;6220;53.580;9.758;2023-06-22T14:10:34;6.33;;;5.73;;
12312;SDS011;6220;53.580;9.758;2023-06-22T14:12:59;6.50;;;5.70;;
12312;SDS011;6220;53.580;9.758;2023-06-22T14:15:25;7.07;;;5.87;;
12312;SDS011;6220;53.580;9.758;2023-06-22T14:17:50;6.57;;;5.97;;
12312;SDS011;6220;53.580;9.758;2023-06-22T14:20:16;7.37;;;5.47;;
12312;SDS011;6220;53.580;9.758;2023-06-22T14:22:42;6.90;;;6.23;;
12312;SDS011;6220;53.580;9.758;2023-06-22T14:25:07;6.67;;;5.40;;
12312;SDS011;6220;53.580;9.758;2023-06-22T14:27:33;7.43;;;6.07;;
12312;SDS011;6220;53.580;9.758;2023-06-22T14:29:58;6.57;;;5.97;;
12312;SDS011;6220;53.580;9.758;2023-06-22T14:32:23;6.00;;;5.40;;
12312;SDS011;6220;53.580;9.758;2023-06-22T14:34:50;6.73;;;5.50;;
12312;SDS011;6220;53.580;9.758;2023-06-22T14:37:16;6.67;;;5.50;;
12312;SDS011;6220;53.580;9.758;2023-06-22T14:39:41;6.57;;;5.47;;
12312;SDS011;6220;53.580;9.758;2023-06-22T14:42:08;7.17;;;5.17;;
12312;SDS011;6220;53.580;9.758;2023-06-22T14:44:34;5.40;;;4.90;;
12312;SDS011;6220;53.580;9.758;2023-06-22T14:47:00;4.93;;;4.53;;
12312;SDS011;6220;53.580;9.758;2023-06-22T14:49:25;5.50;;;5.03;;
12312;SDS011;6220;53.580;9.758;2023-06-22T14:51:51;7.53;;;5.20;;
12312;SDS011;6220;53.580;9.758;2023-06-22T14:54:16;6.37;;;5.40;;
12312;SDS011;6220;53.580;9.758;2023-06-22T14:56:42;5.80;;;4.87;;
12312;SDS011;6220;53.580;9.758;2023-06-22T14:59:08;6.20;;;5.60;;
12312;SDS011;6220;53.580;9.758;2023-06-22T15:01:34;7.47;;;5.33;;